createdAt,value
2023-01-17T00:01:51.002Z,7.359999999999999
2023-01-17T00:06:47.207Z,8.4
2023-01-17T00:12:01.546Z,8.179999999999998
2023-01-17T00:17:06.655Z,6.1
2023-01-17T00:22:07.914Z,7.12
2023-01-17T00:27:04.197Z,6.639999999999999
2023-01-17T00:32:00.432Z,6.9
2023-01-17T00:36:56.743Z,6.540000000000001
2023-01-17T00:41:53.019Z,6.459999999999999
2023-01-17T00:46:49.271Z,7.32
2023-01-17T00:51:45.447Z,6.9
2023-01-17T00:56:41.704Z,6.06
2023-01-17T01:01:38.196Z,6.260000000000001
2023-01-17T01:06:36.265Z,5.779999999999999
2023-01-17T01:11:32.543Z,6.26
2023-01-17T01:16:30.820Z,5.88
2023-01-17T01:21:27.007Z,5.94
2023-01-17T01:26:23.279Z,6.220000000000001
2023-01-17T01:31:19.598Z,4.42
2023-01-17T01:36:15.779Z,4.82
2023-01-17T01:41:14.065Z,5.459999999999999
2023-01-17T01:46:11.310Z,5.6
2023-01-17T01:51:09.635Z,4.359999999999999
2023-01-17T01:56:09.853Z,4.1
2023-01-17T02:01:08.234Z,4.8
2023-01-17T02:06:08.306Z,4.720000000000001
2023-01-17T02:11:04.592Z,4.359999999999999
2023-01-17T02:16:06.917Z,5.24
2023-01-17T02:21:18.071Z,4.5200000000000005
2023-01-17T02:26:31.272Z,4.92
2023-01-17T02:31:33.547Z,5.5600000000000005
2023-01-17T02:36:36.815Z,4.18
2023-01-17T02:41:35.985Z,3.54
2023-01-17T02:46:32.285Z,4.38
2023-01-17T02:51:49.561Z,4.279999999999999
2023-01-17T02:56:56.692Z,4.159999999999999
2023-01-17T03:02:05.165Z,3.56
2023-01-17T03:07:07.169Z,8.579999999999998
2023-01-17T03:12:04.461Z,5.62
2023-01-17T03:17:02.671Z,6.279999999999999
2023-01-17T03:21:58.939Z,5.6
2023-01-17T03:26:55.197Z,6.260000000000001
2023-01-17T03:31:51.477Z,3.7400000000000007
2023-01-17T03:36:47.766Z,3.72
2023-01-17T03:41:43.982Z,3.54
2023-01-17T03:46:44.250Z,4.619999999999999
2023-01-17T03:51:40.476Z,3.6599999999999993
2023-01-17T03:56:36.739Z,5.06
2023-01-17T04:01:33.175Z,4.4799999999999995
2023-01-17T04:06:29.299Z,5.2
2023-01-17T04:11:25.551Z,5.0600000000000005
2023-01-17T04:16:25.827Z,5.64
2023-01-17T04:21:22.049Z,6.2
2023-01-17T04:26:18.291Z,6.16
2023-01-17T04:31:15.684Z,6.82
2023-01-17T04:36:11.846Z,6.08
2023-01-17T04:41:08.107Z,5.5
2023-01-17T04:46:04.401Z,4.9799999999999995
2023-01-17T04:51:00.610Z,7.140000000000001
2023-01-17T04:55:56.860Z,4.0200000000000005
2023-01-17T05:00:53.227Z,4.859999999999999
2023-01-17T05:05:49.371Z,5.380000000000001
2023-01-17T05:10:45.623Z,4.720000000000001
2023-01-17T05:15:41.939Z,4.46
2023-01-17T05:20:38.162Z,5.140000000000001
2023-01-17T05:25:34.444Z,5.720000000000001
2023-01-17T05:30:31.673Z,5.4799999999999995
2023-01-17T05:35:28.949Z,6.44
2023-01-17T05:40:26.210Z,4.720000000000001
2023-01-17T05:45:22.428Z,4.1
2023-01-17T05:50:19.713Z,4.12
2023-01-17T05:55:15.958Z,3.6399999999999997
2023-01-17T06:00:13.197Z,2.3
2023-01-17T06:05:09.468Z,3.16
2023-01-17T06:10:05.708Z,3.0799999999999996
2023-01-17T06:15:01.997Z,3.1199999999999997
2023-01-17T06:19:58.217Z,5.9
2023-01-17T06:24:54.490Z,3.78
2023-01-17T06:29:50.793Z,6.1
2023-01-17T06:34:47.024Z,4.9
2023-01-17T06:39:43.270Z,5.62
2023-01-17T06:44:40.619Z,9.76
2023-01-17T06:49:36.782Z,7.9799999999999995
2023-01-17T06:54:33.079Z,7.039999999999999
2023-01-17T06:59:29.359Z,5.76
2023-01-17T07:04:25.570Z,5.720000000000001
2023-01-17T07:09:21.868Z,7.8
2023-01-17T07:14:18.092Z,8.16
2023-01-17T07:19:14.338Z,8.459999999999999
2023-01-17T07:24:10.593Z,9.9
2023-01-17T07:29:06.919Z,7.640000000000001
2023-01-17T07:34:03.125Z,6.539999999999999
2023-01-17T07:38:59.382Z,6.04
2023-01-17T07:43:56.432Z,5.18
2023-01-17T07:48:54.316Z,5.9799999999999995
2023-01-17T07:53:50.165Z,5.840000000000001
2023-01-17T07:58:46.406Z,6.779999999999999
2023-01-17T08:03:43.722Z,11.38
2023-01-17T08:08:39.912Z,9.84
2023-01-17T08:13:37.186Z,4.540000000000001
2023-01-17T08:18:33.631Z,22.919999999999998
2023-01-17T08:23:29.762Z,26.140000000000004
2023-01-17T08:28:27.985Z,8.58
2023-01-17T08:33:24.265Z,10.82
2023-01-17T08:38:24.531Z,8.2
2023-01-17T08:43:25.758Z,8.66
2023-01-17T08:48:21.965Z,6.779999999999999
2023-01-17T08:53:18.238Z,4.260000000000001
2023-01-17T08:58:14.491Z,4.84
2023-01-17T09:03:12.019Z,5.08
2023-01-17T09:08:08.045Z,5.58
2023-01-17T09:13:05.296Z,4.0600000000000005
2023-01-17T09:18:01.557Z,5.88
2023-01-17T09:22:57.806Z,3.6399999999999997
2023-01-17T09:27:54.098Z,2.84
2023-01-17T09:32:52.292Z,5.6
2023-01-17T09:37:49.580Z,4.4
2023-01-17T09:42:53.863Z,4.34
2023-01-17T09:47:54.067Z,4.36
2023-01-17T09:52:54.328Z,5.340000000000001
2023-01-17T09:58:00.653Z,5.8
2023-01-17T10:03:13.857Z,5.82
2023-01-17T10:08:19.999Z,4.32
2023-01-17T10:13:25.264Z,5.12
2023-01-17T10:18:34.489Z,7.980000000000001
2023-01-17T10:23:46.680Z,6.58
2023-01-17T10:33:53.167Z,5.88
2023-01-17T10:38:51.437Z,4.64
2023-01-17T10:49:10.869Z,4.680000000000001
2023-01-17T10:54:19.130Z,2.54
2023-01-17T10:59:17.411Z,3.1
2023-01-17T11:04:15.622Z,6.539999999999999
2023-01-17T11:09:20.889Z,2.7800000000000002
2023-01-17T11:14:19.374Z,2.94
2023-01-17T11:19:17.409Z,5.359999999999999
2023-01-17T11:24:18.586Z,4.36
2023-01-17T11:29:15.848Z,8.580000000000002
2023-01-17T11:34:15.183Z,4.8
2023-01-17T11:39:23.348Z,4.619999999999999
2023-01-17T11:44:24.206Z,4.840000000000001
2023-01-17T11:49:23.881Z,4.1
2023-01-17T11:54:23.111Z,2.96
2023-01-17T11:59:24.346Z,3.28
2023-01-17T12:04:38.615Z,4.92
2023-01-17T12:09:42.785Z,3.6199999999999997
2023-01-17T12:14:50.020Z,4.7
2023-01-17T12:19:57.286Z,8.18
2023-01-17T12:25:11.456Z,5.279999999999999
2023-01-17T12:30:23.727Z,7.6
2023-01-17T12:35:25.994Z,6.94
2023-01-17T12:40:29.198Z,9.16
2023-01-17T12:45:31.470Z,7.68
2023-01-17T12:50:37.672Z,14.040000000000001
2023-01-17T12:55:41.919Z,12.620000000000001
2023-01-17T12:59:17.368Z,6.92
2023-01-17T13:04:19.686Z,7.459999999999999
2023-01-17T13:09:26.080Z,6.340000000000001
2023-01-17T13:14:22.152Z,6.779999999999999
2023-01-17T13:19:23.387Z,8.16
2023-01-17T13:24:27.625Z,12.100000000000001
2023-01-17T13:29:33.888Z,20.4
2023-01-17T13:34:45.093Z,18.32
2023-01-17T13:39:51.263Z,20.119999999999997
2023-01-17T13:44:47.579Z,13.34
2023-01-17T13:49:52.791Z,35.92
2023-01-17T14:00:05.248Z,25.479999999999997
2023-01-17T14:05:12.676Z,42.1
2023-01-17T14:10:21.750Z,15.460000000000003
2023-01-17T14:15:21.010Z,30.7
2023-01-17T14:20:28.174Z,13.26
2023-01-17T14:25:29.433Z,20.5
2023-01-17T14:30:28.709Z,22.18
2023-01-17T14:35:26.944Z,15.88
2023-01-17T14:40:24.238Z,35.8
2023-01-17T14:45:23.444Z,27.82
2023-01-17T14:50:21.837Z,18.32
2023-01-17T14:55:19.989Z,9.3
2023-01-17T15:00:18.247Z,13.52
2023-01-17T15:05:15.469Z,21.720000000000002
2023-01-17T15:10:15.788Z,24.300000000000004
2023-01-17T15:15:26.083Z,22.9
2023-01-17T15:20:25.215Z,36.34
2023-01-17T15:25:21.514Z,19.02
2023-01-17T15:30:18.719Z,14.12
2023-01-17T15:35:15.988Z,25.660000000000004
2023-01-17T15:40:16.282Z,28.3
2023-01-17T15:45:15.495Z,24.16
2023-01-17T15:50:25.737Z,22.080000000000002
2023-01-17T15:55:22.439Z,21.1
2023-01-17T16:00:20.334Z,18.18
2023-01-17T16:05:26.487Z,54.75999999999999
2023-01-17T16:10:24.713Z,158.76
2023-01-17T16:15:21.994Z,133.12
2023-01-17T16:20:20.249Z,158.06
2023-01-17T16:25:17.471Z,118.84
2023-01-17T16:30:14.771Z,74.6
2023-01-17T16:35:13.988Z,45.06
2023-01-17T16:40:11.804Z,34.2
2023-01-17T16:45:08.595Z,32.82
2023-01-17T16:50:04.769Z,17.76
2023-01-17T16:55:01.078Z,16.9
2023-01-17T16:59:57.284Z,10
2023-01-17T17:04:53.568Z,12.040000000000001
2023-01-17T17:09:50.378Z,5.54
2023-01-17T17:14:47.075Z,8.28
2023-01-17T17:19:43.293Z,3.2600000000000002
2023-01-17T17:24:39.595Z,6.3
2023-01-17T17:29:36.827Z,3.94
2023-01-17T17:34:33.078Z,3.9
2023-01-17T17:39:29.360Z,5.42
2023-01-17T17:44:25.614Z,4.82
2023-01-17T17:49:21.865Z,3.5200000000000005
2023-01-17T17:54:19.120Z,3.9200000000000004
2023-01-17T17:59:16.367Z,4.3
2023-01-17T18:04:12.802Z,4.960000000000001
2023-01-17T18:09:11.257Z,9.5
2023-01-17T18:14:08.160Z,5.4799999999999995
2023-01-17T18:19:04.422Z,6
2023-01-17T18:24:01.688Z,4.8
2023-01-17T18:28:58.935Z,5.119999999999999
2023-01-17T18:33:56.218Z,5.74
2023-01-17T18:38:52.447Z,4.44
2023-01-17T18:43:48.751Z,4.9399999999999995
2023-01-17T18:48:44.973Z,4.88
2023-01-17T18:53:42.219Z,5.840000000000001
2023-01-17T18:58:39.489Z,5.659999999999999
2023-01-17T19:03:37.013Z,5.159999999999999
2023-01-17T19:08:33.996Z,4.56
2023-01-17T19:13:31.284Z,5.3
2023-01-17T19:18:27.563Z,4.74
2023-01-17T19:23:23.798Z,4.640000000000001
2023-01-17T19:28:20.022Z,3.78
2023-01-17T19:33:16.298Z,5.220000000000001
2023-01-17T19:38:15.567Z,4.58
2023-01-17T19:43:11.896Z,3.66
2023-01-17T19:48:08.070Z,4.94
2023-01-17T19:53:03.330Z,3.6399999999999997
2023-01-17T19:58:01.581Z,5.3
2023-01-17T20:02:57.879Z,4.88
2023-01-17T20:07:54.537Z,4.459999999999999
2023-01-17T20:12:51.362Z,5.999999999999999
2023-01-17T20:17:47.630Z,4.74
2023-01-17T20:22:44.956Z,4.04
2023-01-17T20:27:41.128Z,3.72
2023-01-17T20:32:36.420Z,3.7
2023-01-17T20:37:32.645Z,4.78
2023-01-17T20:42:29.900Z,4.3
2023-01-17T20:47:26.180Z,3.3999999999999995
2023-01-17T20:52:22.459Z,3.6800000000000006
2023-01-17T20:57:19.302Z,4.58
2023-01-17T21:02:16.055Z,3.9
2023-01-17T21:07:13.225Z,3.06
2023-01-17T21:12:09.448Z,3.6199999999999997
2023-01-17T21:17:05.743Z,4.8
2023-01-17T21:22:01.991Z,3.9599999999999995
2023-01-17T21:26:59.285Z,3.72
2023-01-17T21:31:56.488Z,3.78
2023-01-17T21:36:53.781Z,4.459999999999999
2023-01-17T21:41:51.113Z,3.4799999999999995
2023-01-17T21:46:49.186Z,3.9
2023-01-17T21:51:46.585Z,2.98
2023-01-17T21:56:43.819Z,3.2600000000000002
2023-01-17T22:01:44.176Z,3.46
2023-01-17T22:06:40.290Z,4
2023-01-17T22:11:37.553Z,4.9799999999999995
2023-01-17T22:16:34.806Z,3.9
2023-01-17T22:21:34.084Z,3.8200000000000003
2023-01-17T22:26:33.343Z,3.8
2023-01-17T22:31:29.565Z,3.9599999999999995
2023-01-17T22:36:30.831Z,2.8
2023-01-17T22:41:32.169Z,2.82
2023-01-17T22:46:31.436Z,2.56
2023-01-17T22:51:27.625Z,1.92
2023-01-17T22:56:28.840Z,2.7
2023-01-17T23:01:26.172Z,2.62
2023-01-17T23:06:23.358Z,2.7800000000000002
2023-01-17T23:11:22.597Z,2.96
2023-01-17T23:16:18.906Z,3.44
2023-01-17T23:21:15.126Z,3.9799999999999995
2023-01-17T23:26:11.396Z,3.2399999999999998
2023-01-17T23:31:08.726Z,2.7199999999999998
2023-01-17T23:36:05.897Z,3.2399999999999998
2023-01-17T23:41:04.192Z,2.34
2023-01-17T23:46:00.442Z,1.7799999999999998
2023-01-17T23:50:57.663Z,1.5399999999999998
2023-01-17T23:55:53.940Z,1.7
